sensor_id;sensor_type;location;lat;lon;timestamp;pressure;altitude;pressure_sealevel;temperature;humidity
61324;BME280;47203;48.428;11.974;2023-03-18T00:01:10;96371.22;;;9.49;43.09
61324;BME280;47203;48.428;11.974;2023-03-18T00:03:16;96373.34;;;9.47;43.18
61324;BME280;47203;48.428;11.974;2023-03-18T00:05:24;96374.66;;;9.39;43.34
61324;BME280;47203;48.428;11.974;2023-03-18T00:07:29;96371.50;;;9.32;43.22
61324;BME280;47203;48.428;11.974;2023-03-18T00:09:34;96386.50;;;9.26;43.47
61324;BME280;47203;48.428;11.974;2023-03-18T00:11:39;96377.56;;;9.22;43.66
61324;BME280;47203;48.428;11.974;2023-03-18T00:13:44;96387.00;;;9.18;43.49
61324;BME280;47203;48.428;11.974;2023-03-18T00:15:49;96379.91;;;9.13;43.77
61324;BME280;47203;48.428;11.974;2023-03-18T00:17:54;96388.84;;;9.12;43.87
61324;BME280;47203;48.428;11.974;2023-03-18T00:20:00;96387.25;;;9.11;43.59
61324;BME280;47203;48.428;11.974;2023-03-18T00:22:10;96381.22;;;9.11;43.76
61324;BME280;47203;48.428;11.974;2023-03-18T00:24:15;96389.38;;;9.09;43.64
61324;BME280;47203;48.428;11.974;2023-03-18T00:26:20;96383.06;;;9.10;43.70
61324;BME280;47203;48.428;11.974;2023-03-18T00:28:26;96382.00;;;9.11;44.01
61324;BME280;47203;48.428;11.974;2023-03-18T00:30:32;96380.44;;;9.10;43.97
61324;BME280;47203;48.428;11.974;2023-03-18T00:32:37;96382.00;;;9.11;44.01
61324;BME280;47203;48.428;11.974;2023-03-18T00:34:43;96393.56;;;9.10;44.01
61324;BME280;47203;48.428;11.974;2023-03-18T00:36:47;96393.56;;;9.05;44.11
61324;BME280;47203;48.428;11.974;2023-03-18T00:39:00;96402.22;;;9.00;44.11
61324;BME280;47203;48.428;11.974;2023-03-18T00:41:05;96399.34;;;8.97;44.22
61324;BME280;47203;48.428;11.974;2023-03-18T00:43:16;96396.97;;;8.95;44.40
61324;BME280;47203;48.428;11.974;2023-03-18T00:45:23;96400.66;;;8.94;44.32
61324;BME280;47203;48.428;11.974;2023-03-18T00:47:29;96411.41;;;8.93;44.49
61324;BME280;47203;48.428;11.974;2023-03-18T00:49:33;96401.69;;;8.88;44.76
61324;BME280;47203;48.428;11.974;2023-03-18T00:51:38;96402.22;;;8.85;44.66
61324;BME280;47203;48.428;11.974;2023-03-18T00:53:46;96400.09;;;8.82;44.68
61324;BME280;47203;48.428;11.974;2023-03-18T00:55:54;96416.09;;;8.75;44.69
61324;BME280;47203;48.428;11.974;2023-03-18T00:57:59;96404.81;;;8.69;45.01
61324;BME280;47203;48.428;11.974;2023-03-18T01:00:06;96413.19;;;8.66;45.17
61324;BME280;47203;48.428;11.974;2023-03-18T01:02:12;96412.38;;;8.66;45.00
61324;BME280;47203;48.428;11.974;2023-03-18T01:04:18;96414.22;;;8.65;45.12
61324;BME280;47203;48.428;11.974;2023-03-18T01:06:24;96406.38;;;8.65;45.07
61324;BME280;47203;48.428;11.974;2023-03-18T01:08:30;96414.50;;;8.64;45.17
61324;BME280;47203;48.428;11.974;2023-03-18T01:10:36;96417.91;;;8.64;45.34
61324;BME280;47203;48.428;11.974;2023-03-18T01:12:46;96416.84;;;8.65;45.21
61324;BME280;47203;48.428;11.974;2023-03-18T01:14:51;96409.53;;;8.67;45.47
61324;BME280;47203;48.428;11.974;2023-03-18T01:16:56;96415.28;;;8.69;45.11
61324;BME280;47203;48.428;11.974;2023-03-18T01:19:01;96406.13;;;8.72;45.24
61324;BME280;47203;48.428;11.974;2023-03-18T01:21:06;96412.66;;;8.74;45.20
61324;BME280;47203;48.428;11.974;2023-03-18T01:23:19;96418.16;;;8.63;45.17
61324;BME280;47203;48.428;11.974;2023-03-18T01:25:24;96409.50;;;8.62;45.00
61324;BME280;47203;48.428;11.974;2023-03-18T01:27:29;96415.00;;;8.61;45.14
61324;BME280;47203;48.428;11.974;2023-03-18T01:29:37;96413.69;;;8.58;45.30
61324;BME280;47203;48.428;11.974;2023-03-18T01:31:48;96419.19;;;8.56;45.44
61324;BME280;47203;48.428;11.974;2023-03-18T01:33:54;96423.63;;;8.51;45.43
61324;BME280;47203;48.428;11.974;2023-03-18T01:36:02;96406.09;;;8.51;45.51
61324;BME280;47203;48.428;11.974;2023-03-18T01:38:07;96407.91;;;8.51;45.43
61324;BME280;47203;48.428;11.974;2023-03-18T01:40:14;96413.13;;;8.51;45.51
61324;BME280;47203;48.428;11.974;2023-03-18T01:42:21;96405.78;;;8.48;45.70
61324;BME280;47203;48.428;11.974;2023-03-18T01:44:27;96420.50;;;8.49;45.68
61324;BME280;47203;48.428;11.974;2023-03-18T01:46:38;96412.06;;;8.47;45.50
61324;BME280;47203;48.428;11.974;2023-03-18T01:48:43;96413.66;;;8.48;45.84
61324;BME280;47203;48.428;11.974;2023-03-18T01:50:52;96414.69;;;8.47;45.56
61324;BME280;47203;48.428;11.974;2023-03-18T01:53:02;96412.88;;;8.47;45.66
61324;BME280;47203;48.428;11.974;2023-03-18T01:55:11;96415.50;;;8.47;45.77
61324;BME280;47203;48.428;11.974;2023-03-18T01:57:17;96417.59;;;8.50;45.92
61324;BME280;47203;48.428;11.974;2023-03-18T01:59:26;96418.94;;;8.53;46.14
61324;BME280;47203;48.428;11.974;2023-03-18T02:01:39;96414.22;;;8.55;46.05
61324;BME280;47203;48.428;11.974;2023-03-18T02:03:49;96414.72;;;8.57;45.92
61324;BME280;47203;48.428;11.974;2023-03-18T02:05:55;96422.09;;;8.60;46.13
61324;BME280;47203;48.428;11.974;2023-03-18T02:08:01;96425.75;;;8.59;46.24
61324;BME280;47203;48.428;11.974;2023-03-18T02:10:08;96426.03;;;8.58;46.15
61324;BME280;47203;48.428;11.974;2023-03-18T02:12:20;96420.50;;;8.54;46.51
61324;BME280;47203;48.428;11.974;2023-03-18T02:14:29;96418.16;;;8.58;46.16
61324;BME280;47203;48.428;11.974;2023-03-18T02:16:41;96426.53;;;8.60;46.61
61324;BME280;47203;48.428;11.974;2023-03-18T02:18:50;96432.84;;;8.64;46.42
61324;BME280;47203;48.428;11.974;2023-03-18T02:21:17;96426.03;;;8.63;46.30
61324;BME280;47203;48.428;11.974;2023-03-18T02:23:33;96434.72;;;8.63;46.15
61324;BME280;47203;48.428;11.974;2023-03-18T02:25:48;96435.22;;;8.60;46.46
61324;BME280;47203;48.428;11.974;2023-03-18T02:28:00;96437.56;;;8.56;46.55
61324;BME280;47203;48.428;11.974;2023-03-18T02:30:13;96429.16;;;8.54;46.65
61324;BME280;47203;48.428;11.974;2023-03-18T02:32:20;96439.41;;;8.56;46.56
61324;BME280;47203;48.428;11.974;2023-03-18T02:34:25;96440.97;;;8.57;46.68
61324;BME280;47203;48.428;11.974;2023-03-18T02:36:32;96434.69;;;8.58;46.44
61324;BME280;47203;48.428;11.974;2023-03-18T02:38:43;96439.66;;;8.60;46.43
61324;BME280;47203;48.428;11.974;2023-03-18T02:40:56;96437.28;;;8.58;46.48
61324;BME280;47203;48.428;11.974;2023-03-18T02:43:20;96438.84;;;8.54;46.60
61324;BME280;47203;48.428;11.974;2023-03-18T02:45:37;96444.09;;;8.49;46.59
61324;BME280;47203;48.428;11.974;2023-03-18T02:47:45;96439.38;;;8.46;46.69
61324;BME280;47203;48.428;11.974;2023-03-18T02:49:52;96442.25;;;8.44;46.73
61324;BME280;47203;48.428;11.974;2023-03-18T02:51:57;96449.78;;;8.41;46.64
61324;BME280;47203;48.428;11.974;2023-03-18T02:54:05;96446.91;;;8.37;46.99
61324;BME280;47203;48.428;11.974;2023-03-18T02:56:11;96454.47;;;8.33;46.68
61324;BME280;47203;48.428;11.974;2023-03-18T02:58:19;96447.69;;;8.32;47.05
61324;BME280;47203;48.428;11.974;2023-03-18T03:00:28;96463.91;;;8.29;47.05
61324;BME280;47203;48.428;11.974;2023-03-18T03:02:34;96451.56;;;8.25;46.89
61324;BME280;47203;48.428;11.974;2023-03-18T03:04:39;96456.53;;;8.21;47.02
61324;BME280;47203;48.428;11.974;2023-03-18T03:06:44;96457.84;;;8.18;47.00
61324;BME280;47203;48.428;11.974;2023-03-18T03:08:54;96462.81;;;8.15;46.85
61324;BME280;47203;48.428;11.974;2023-03-18T03:10:59;96465.13;;;8.11;46.90
61324;BME280;47203;48.428;11.974;2023-03-18T03:13:07;96465.63;;;8.08;46.98
61324;BME280;47203;48.428;11.974;2023-03-18T03:15:16;96464.06;;;8.07;47.01
61324;BME280;47203;48.428;11.974;2023-03-18T03:17:27;96471.13;;;8.07;46.92
61324;BME280;47203;48.428;11.974;2023-03-18T03:19:30;96469.28;;;8.07;47.15
61324;BME280;47203;48.428;11.974;2023-03-18T03:21:36;96477.72;;;8.09;46.96
61324;BME280;47203;48.428;11.974;2023-03-18T03:23:41;96477.72;;;8.09;47.02
61324;BME280;47203;48.428;11.974;2023-03-18T03:25:48;96477.72;;;8.09;46.73
61324;BME280;47203;48.428;11.974;2023-03-18T03:27:54;96480.34;;;8.09;47.08
61324;BME280;47203;48.428;11.974;2023-03-18T03:29:59;96483.72;;;8.10;47.00
61324;BME280;47203;48.428;11.974;2023-03-18T03:32:06;96479.78;;;8.07;46.99
61324;BME280;47203;48.428;11.974;2023-03-18T03:34:12;96484.75;;;8.03;46.94
61324;BME280;47203;48.428;11.974;2023-03-18T03:36:16;96489.69;;;8.00;47.20
61324;BME280;47203;48.428;11.974;2023-03-18T03:38:22;96491.78;;;7.98;47.28
61324;BME280;47203;48.428;11.974;2023-03-18T03:40:29;96488.41;;;7.97;47.13
61324;BME280;47203;48.428;11.974;2023-03-18T03:42:34;96495.69;;;7.95;47.03
61324;BME280;47203;48.428;11.974;2023-03-18T03:44:39;96493.59;;;7.92;47.28
61324;BME280;47203;48.428;11.974;2023-03-18T03:46:44;96497.25;;;7.91;46.97
61324;BME280;47203;48.428;11.974;2023-03-18T03:48:52;96490.94;;;7.87;47.16
61324;BME280;47203;48.428;11.974;2023-03-18T03:50:57;96498.25;;;7.85;47.31
61324;BME280;47203;48.428;11.974;2023-03-18T03:53:02;96493.53;;;7.82;47.24
61324;BME280;47203;48.428;11.974;2023-03-18T03:55:10;96497.44;;;7.79;47.19
61324;BME280;47203;48.428;11.974;2023-03-18T03:57:15;96488.47;;;7.75;47.46
61324;BME280;47203;48.428;11.974;2023-03-18T03:59:20;96495.81;;;7.73;47.36
61324;BME280;47203;48.428;11.974;2023-03-18T04:01:37;96497.91;;;7.71;47.32
61324;BME280;47203;48.428;11.974;2023-03-18T04:03:42;96497.34;;;7.69;47.68
61324;BME280;47203;48.428;11.974;2023-03-18T04:05:49;96497.59;;;7.67;47.67
61324;BME280;47203;48.428;11.974;2023-03-18T04:07:57;96499.44;;;7.67;47.65
61324;BME280;47203;48.428;11.974;2023-03-18T04:10:12;96492.63;;;7.66;47.73
61324;BME280;47203;48.428;11.974;2023-03-18T04:12:18;96499.13;;;7.63;47.70
61324;BME280;47203;48.428;11.974;2023-03-18T04:14:29;96500.44;;;7.61;47.54
61324;BME280;47203;48.428;11.974;2023-03-18T04:16:34;96494.41;;;7.60;47.85
61324;BME280;47203;48.428;11.974;2023-03-18T04:18:39;96499.63;;;7.60;47.80
61324;BME280;47203;48.428;11.974;2023-03-18T04:20:44;96492.59;;;7.61;47.85
61324;BME280;47203;48.428;11.974;2023-03-18T04:23:12;96495.69;;;7.58;47.75
61324;BME280;47203;48.428;11.974;2023-03-18T04:25:17;96493.88;;;7.58;47.95
61324;BME280;47203;48.428;11.974;2023-03-18T04:27:26;96497.28;;;7.59;48.06
61324;BME280;47203;48.428;11.974;2023-03-18T04:29:37;96501.72;;;7.58;48.06
61324;BME280;47203;48.428;11.974;2023-03-18T04:31:42;96494.91;;;7.57;48.15
61324;BME280;47203;48.428;11.974;2023-03-18T04:33:47;96500.91;;;7.58;48.22
61324;BME280;47203;48.428;11.974;2023-03-18T04:35:53;96499.38;;;7.57;48.09
61324;BME280;47203;48.428;11.974;2023-03-18T04:38:00;96503.00;;;7.56;48.01
61324;BME280;47203;48.428;11.974;2023-03-18T04:40:10;96503.25;;;7.54;48.07
61324;BME280;47203;48.428;11.974;2023-03-18T04:42:15;96504.28;;;7.53;48.21
61324;BME280;47203;48.428;11.974;2023-03-18T04:44:21;96506.38;;;7.51;48.18
61324;BME280;47203;48.428;11.974;2023-03-18T04:46:26;96503.22;;;7.49;48.21
61324;BME280;47203;48.428;11.974;2023-03-18T04:48:32;96506.31;;;7.46;48.25
61324;BME280;47203;48.428;11.974;2023-03-18T04:50:39;96504.22;;;7.43;48.27
61324;BME280;47203;48.428;11.974;2023-03-18T04:52:48;96508.09;;;7.40;48.41
61324;BME280;47203;48.428;11.974;2023-03-18T04:54:58;96508.34;;;7.39;48.40
61324;BME280;47203;48.428;11.974;2023-03-18T04:57:07;96508.84;;;7.36;48.44
61324;BME280;47203;48.428;11.974;2023-03-18T04:59:17;96511.47;;;7.36;48.57
61324;BME280;47203;48.428;11.974;2023-03-18T05:01:23;96510.69;;;7.35;48.53
61324;BME280;47203;48.428;11.974;2023-03-18T05:03:28;96512.53;;;7.34;48.55
61324;BME280;47203;48.428;11.974;2023-03-18T05:05:33;96514.09;;;7.36;48.59
61324;BME280;47203;48.428;11.974;2023-03-18T05:07:42;96514.91;;;7.36;48.58
61324;BME280;47203;48.428;11.974;2023-03-18T05:09:49;96513.59;;;7.39;48.73
61324;BME280;47203;48.428;11.974;2023-03-18T05:11:54;96523.34;;;7.43;48.78
61324;BME280;47203;48.428;11.974;2023-03-18T05:14:06;96520.47;;;7.45;48.56
61324;BME280;47203;48.428;11.974;2023-03-18T05:16:17;96515.00;;;7.46;48.44
61324;BME280;47203;48.428;11.974;2023-03-18T05:18:23;96513.94;;;7.47;48.43
61324;BME280;47203;48.428;11.974;2023-03-18T05:20:29;96512.66;;;7.50;48.65
61324;BME280;47203;48.428;11.974;2023-03-18T05:22:35;96518.19;;;7.54;48.81
61324;BME280;47203;48.428;11.974;2023-03-18T05:24:49;96508.78;;;7.58;48.52
61324;BME280;47203;48.428;11.974;2023-03-18T05:26:56;96514.56;;;7.60;48.72
61324;BME280;47203;48.428;11.974;2023-03-18T05:29:11;96519.81;;;7.60;48.87
61324;BME280;47203;48.428;11.974;2023-03-18T05:31:29;96519.00;;;7.59;48.57
61324;BME280;47203;48.428;11.974;2023-03-18T05:33:35;96513.00;;;7.59;48.75
61324;BME280;47203;48.428;11.974;2023-03-18T05:35:43;96515.34;;;7.60;48.58
61324;BME280;47203;48.428;11.974;2023-03-18T05:37:51;96514.31;;;7.61;48.62
61324;BME280;47203;48.428;11.974;2023-03-18T05:39:57;96518.78;;;7.61;48.85
61324;BME280;47203;48.428;11.974;2023-03-18T05:42:03;96517.44;;;7.58;48.71
61324;BME280;47203;48.428;11.974;2023-03-18T05:44:11;96521.59;;;7.54;48.83
61324;BME280;47203;48.428;11.974;2023-03-18T05:46:17;96527.63;;;7.55;48.76
61324;BME280;47203;48.428;11.974;2023-03-18T05:48:35;96532.06;;;7.54;48.79
61324;BME280;47203;48.428;11.974;2023-03-18T05:50:41;96526.06;;;7.54;49.10
61324;BME280;47203;48.428;11.974;2023-03-18T05:52:52;96531.03;;;7.55;49.16
61324;BME280;47203;48.428;11.974;2023-03-18T05:54:59;96534.19;;;7.57;48.92
61324;BME280;47203;48.428;11.974;2023-03-18T05:57:08;96524.25;;;7.59;49.11
61324;BME280;47203;48.428;11.974;2023-03-18T05:59:17;96528.75;;;7.64;49.18
61324;BME280;47203;48.428;11.974;2023-03-18T06:01:29;96529.53;;;7.64;48.83
61324;BME280;47203;48.428;11.974;2023-03-18T06:03:35;96529.53;;;7.64;48.91
61324;BME280;47203;48.428;11.974;2023-03-18T06:05:40;96530.31;;;7.65;49.02
61324;BME280;47203;48.428;11.974;2023-03-18T06:07:45;96535.56;;;7.65;49.02
61324;BME280;47203;48.428;11.974;2023-03-18T06:09:50;96538.44;;;7.63;49.32
61324;BME280;47203;48.428;11.974;2023-03-18T06:11:55;96534.25;;;7.62;49.34
61324;BME280;47203;48.428;11.974;2023-03-18T06:14:00;96535.81;;;7.63;49.05
61324;BME280;47203;48.428;11.974;2023-03-18T06:16:08;96537.66;;;7.63;49.35
61324;BME280;47203;48.428;11.974;2023-03-18T06:18:13;96532.41;;;7.63;49.41
61324;BME280;47203;48.428;11.974;2023-03-18T06:20:19;96539.25;;;7.64;49.29
61324;BME280;47203;48.428;11.974;2023-03-18T06:22:24;96536.63;;;7.64;49.34
61324;BME280;47203;48.428;11.974;2023-03-18T06:24:29;96534.00;;;7.64;49.48
61324;BME280;47203;48.428;11.974;2023-03-18T06:26:34;96536.63;;;7.64;49.74
61324;BME280;47203;48.428;11.974;2023-03-18T06:28:40;96539.50;;;7.67;49.44
61324;BME280;47203;48.428;11.974;2023-03-18T06:30:48;96536.66;;;7.69;49.44
61324;BME280;47203;48.428;11.974;2023-03-18T06:32:56;96538.50;;;7.68;49.62
61324;BME280;47203;48.428;11.974;2023-03-18T06:35:01;96538.22;;;7.70;49.57
61324;BME280;47203;48.428;11.974;2023-03-18T06:37:07;96542.19;;;7.73;49.54
61324;BME280;47203;48.428;11.974;2023-03-18T06:39:12;96546.94;;;7.76;49.80
61324;BME280;47203;48.428;11.974;2023-03-18T06:41:17;96551.94;;;7.82;49.73
61324;BME280;47203;48.428;11.974;2023-03-18T06:43:37;96539.97;;;7.92;49.68
61324;BME280;47203;48.428;11.974;2023-03-18T06:45:43;96545.53;;;8.00;49.69
61324;BME280;47203;48.428;11.974;2023-03-18T06:47:48;96549.53;;;8.08;49.77
61324;BME280;47203;48.428;11.974;2023-03-18T06:49:56;96546.94;;;8.13;49.84
61324;BME280;47203;48.428;11.974;2023-03-18T06:52:05;96547.28;;;8.22;49.78
61324;BME280;47203;48.428;11.974;2023-03-18T06:54:10;96546.25;;;8.28;49.88
61324;BME280;47203;48.428;11.974;2023-03-18T06:56:16;96551.25;;;8.35;49.78
61324;BME280;47203;48.428;11.974;2023-03-18T06:58:31;96554.19;;;8.44;49.95
61324;BME280;47203;48.428;11.974;2023-03-18T07:00:40;96556.13;;;8.53;49.72
61324;BME280;47203;48.428;11.974;2023-03-18T07:02:52;96549.34;;;8.63;50.06
61324;BME280;47203;48.428;11.974;2023-03-18T07:05:02;96555.69;;;8.72;50.02
61324;BME280;47203;48.428;11.974;2023-03-18T07:07:10;96555.47;;;8.84;49.99
61324;BME280;47203;48.428;11.974;2023-03-18T07:09:16;96558.13;;;8.94;49.83
61324;BME280;47203;48.428;11.974;2023-03-18T07:11:26;96555.25;;;9.01;49.96
61324;BME280;47203;48.428;11.974;2023-03-18T07:13:35;96552.66;;;9.06;50.10
61324;BME280;47203;48.428;11.974;2023-03-18T07:15:47;96555.84;;;9.13;50.13
61324;BME280;47203;48.428;11.974;2023-03-18T07:17:52;96561.38;;;9.22;50.26
61324;BME280;47203;48.428;11.974;2023-03-18T07:19:57;96556.41;;;9.31;50.25
61324;BME280;47203;48.428;11.974;2023-03-18T07:22:05;96558.28;;;9.40;50.14
61324;BME280;47203;48.428;11.974;2023-03-18T07:24:11;96560.09;;;9.50;50.41
61324;BME280;47203;48.428;11.974;2023-03-18T07:26:17;96560.38;;;9.59;50.51
61324;BME280;47203;48.428;11.974;2023-03-18T07:28:22;96561.47;;;9.68;50.47
61324;BME280;47203;48.428;11.974;2023-03-18T07:30:27;96557.25;;;9.77;50.16
61324;BME280;47203;48.428;11.974;2023-03-18T07:32:32;96558.84;;;9.89;50.25
61324;BME280;47203;48.428;11.974;2023-03-18T07:34:38;96559.63;;;10.00;50.44
61324;BME280;47203;48.428;11.974;2023-03-18T07:36:43;96562.78;;;10.12;50.56
61324;BME280;47203;48.428;11.974;2023-03-18T07:38:51;96559.06;;;10.23;50.61
61324;BME280;47203;48.428;11.974;2023-03-18T07:40:57;96562.25;;;10.36;50.43
61324;BME280;47203;48.428;11.974;2023-03-18T07:43:03;96570.13;;;10.46;50.31
61324;BME280;47203;48.428;11.974;2023-03-18T07:45:09;96572.72;;;10.56;50.33
61324;BME280;47203;48.428;11.974;2023-03-18T07:47:14;96573.75;;;10.65;50.31
61324;BME280;47203;48.428;11.974;2023-03-18T07:49:21;96569.53;;;10.75;50.29
61324;BME280;47203;48.428;11.974;2023-03-18T07:51:26;96577.66;;;10.83;50.69
61324;BME280;47203;48.428;11.974;2023-03-18T07:53:31;96576.03;;;10.93;50.28
61324;BME280;47203;48.428;11.974;2023-03-18T07:55:41;96581.53;;;11.02;50.68
61324;BME280;47203;48.428;11.974;2023-03-18T07:57:45;96565.19;;;11.10;50.29
61324;BME280;47203;48.428;11.974;2023-03-18T07:59:51;96578.03;;;11.22;50.43
61324;BME280;47203;48.428;11.974;2023-03-18T08:01:56;96577.16;;;11.31;50.51
61324;BME280;47203;48.428;11.974;2023-03-18T08:04:01;96576.31;;;11.41;50.34
61324;BME280;47203;48.428;11.974;2023-03-18T08:06:06;96574.94;;;11.49;50.13
61324;BME280;47203;48.428;11.974;2023-03-18T08:08:12;96582.28;;;11.57;50.07
61324;BME280;47203;48.428;11.974;2023-03-18T08:10:17;96583.28;;;11.66;50.02
61324;BME280;47203;48.428;11.974;2023-03-18T08:12:26;96581.13;;;11.74;49.94
61324;BME280;47203;48.428;11.974;2023-03-18T08:14:51;96586.38;;;11.79;49.64
61324;BME280;47203;48.428;11.974;2023-03-18T08:16:57;96587.91;;;11.85;49.39
61324;BME280;47203;48.428;11.974;2023-03-18T08:19:02;96587.88;;;11.90;49.10
61324;BME280;47203;48.428;11.974;2023-03-18T08:21:07;96587.59;;;11.97;49.07
61324;BME280;47203;48.428;11.974;2023-03-18T08:23:12;96587.28;;;12.03;48.62
61324;BME280;47203;48.428;11.974;2023-03-18T08:25:18;96587.75;;;12.11;48.61
61324;BME280;47203;48.428;11.974;2023-03-18T08:27:26;96587.66;;;12.21;48.54
61324;BME280;47203;48.428;11.974;2023-03-18T08:29:31;96585.22;;;12.30;48.34
61324;BME280;47203;48.428;11.974;2023-03-18T08:31:37;96582.47;;;12.40;48.60
61324;BME280;47203;48.428;11.974;2023-03-18T08:33:42;96577.88;;;12.51;48.35
61324;BME280;47203;48.428;11.974;2023-03-18T08:35:47;96582.00;;;12.62;48.23
61324;BME280;47203;48.428;11.974;2023-03-18T08:37:53;96577.94;;;12.70;47.98
61324;BME280;47203;48.428;11.974;2023-03-18T08:39:59;96587.38;;;12.76;47.96
61324;BME280;47203;48.428;11.974;2023-03-18T08:42:05;96586.84;;;12.79;47.47
61324;BME280;47203;48.428;11.974;2023-03-18T08:44:13;96585.19;;;12.83;47.37
61324;BME280;47203;48.428;11.974;2023-03-18T08:46:18;96579.00;;;12.93;47.67
61324;BME280;47203;48.428;11.974;2023-03-18T08:48:24;96584.94;;;13.04;47.49
61324;BME280;47203;48.428;11.974;2023-03-18T08:50:29;96583.25;;;13.13;47.35
61324;BME280;47203;48.428;11.974;2023-03-18T08:52:34;96579.97;;;13.21;47.09
61324;BME280;47203;48.428;11.974;2023-03-18T08:54:40;96585.41;;;13.30;47.15
61324;BME280;47203;48.428;11.974;2023-03-18T08:56:45;96584.31;;;13.36;46.69
61324;BME280;47203;48.428;11.974;2023-03-18T08:58:51;96593.25;;;13.40;46.45
61324;BME280;47203;48.428;11.974;2023-03-18T09:00:59;96591.88;;;13.43;46.64
61324;BME280;47203;48.428;11.974;2023-03-18T09:03:06;96590.25;;;13.47;46.62
61324;BME280;47203;48.428;11.974;2023-03-18T09:05:11;96586.72;;;13.52;46.34
61324;BME280;47203;48.428;11.974;2023-03-18T09:07:16;96581.69;;;13.55;45.98
61324;BME280;47203;48.428;11.974;2023-03-18T09:09:21;96585.31;;;13.59;45.90
61324;BME280;47203;48.428;11.974;2023-03-18T09:11:43;96578.88;;;13.66;46.33
61324;BME280;47203;48.428;11.974;2023-03-18T09:13:49;96578.72;;;13.76;46.15
61324;BME280;47203;48.428;11.974;2023-03-18T09:15:54;96587.56;;;13.85;46.16
61324;BME280;47203;48.428;11.974;2023-03-18T09:18:01;96585.56;;;13.96;45.96
61324;BME280;47203;48.428;11.974;2023-03-18T09:20:15;96584.31;;;14.07;45.82
61324;BME280;47203;48.428;11.974;2023-03-18T09:22:20;96583.09;;;14.19;46.06
61324;BME280;47203;48.428;11.974;2023-03-18T09:24:25;96587.63;;;14.32;45.69
61324;BME280;47203;48.428;11.974;2023-03-18T09:26:30;96582.16;;;14.42;45.75
61324;BME280;47203;48.428;11.974;2023-03-18T09:28:34;96584.31;;;14.54;45.55
61324;BME280;47203;48.428;11.974;2023-03-18T09:30:40;96580.75;;;14.64;45.12
61324;BME280;47203;48.428;11.974;2023-03-18T09:32:45;96581.34;;;14.75;44.91
61324;BME280;47203;48.428;11.974;2023-03-18T09:34:53;96587.00;;;14.82;45.33
61324;BME280;47203;48.428;11.974;2023-03-18T09:36:58;96582.91;;;14.90;45.27
61324;BME280;47203;48.428;11.974;2023-03-18T09:39:03;96588.31;;;14.98;45.12
61324;BME280;47203;48.428;11.974;2023-03-18T09:41:20;96582.13;;;15.03;45.32
61324;BME280;47203;48.428;11.974;2023-03-18T09:43:39;96574.84;;;15.09;45.08
61324;BME280;47203;48.428;11.974;2023-03-18T09:45:54;96567.59;;;15.14;45.30
61324;BME280;47203;48.428;11.974;2023-03-18T09:48:22;96573.56;;;15.20;45.31
61324;BME280;47203;48.428;11.974;2023-03-18T09:50:41;96577.38;;;15.28;45.41
61324;BME280;47203;48.428;11.974;2023-03-18T09:52:49;96577.38;;;15.28;45.31
61324;BME280;47203;48.428;11.974;2023-03-18T09:55:01;96579.81;;;15.38;45.26
61324;BME280;47203;48.428;11.974;2023-03-18T09:57:13;96576.47;;;15.46;44.87
61324;BME280;47203;48.428;11.974;2023-03-18T09:59:21;96587.63;;;15.57;45.25
61324;BME280;47203;48.428;11.974;2023-03-18T10:01:28;96577.69;;;15.63;44.71
61324;BME280;47203;48.428;11.974;2023-03-18T10:03:38;96579.91;;;15.69;44.85
61324;BME280;47203;48.428;11.974;2023-03-18T10:05:52;96575.75;;;15.77;44.70
61324;BME280;47203;48.428;11.974;2023-03-18T10:08:03;96583.31;;;15.84;44.75
61324;BME280;47203;48.428;11.974;2023-03-18T10:10:17;96579.47;;;15.90;45.03
61324;BME280;47203;48.428;11.974;2023-03-18T10:12:29;96582.00;;;15.95;45.02
61324;BME280;47203;48.428;11.974;2023-03-18T10:14:40;96582.84;;;16.04;45.22
61324;BME280;47203;48.428;11.974;2023-03-18T10:16:56;96581.19;;;16.17;45.35
61324;BME280;47203;48.428;11.974;2023-03-18T10:19:06;96578.78;;;16.30;45.00
61324;BME280;47203;48.428;11.974;2023-03-18T10:21:19;96572.09;;;16.41;44.83
61324;BME280;47203;48.428;11.974;2023-03-18T10:23:39;96580.13;;;16.50;44.19
61324;BME280;47203;48.428;11.974;2023-03-18T10:25:51;96583.63;;;16.59;44.62
61324;BME280;47203;48.428;11.974;2023-03-18T10:28:08;96576.47;;;16.68;44.28
61324;BME280;47203;48.428;11.974;2023-03-18T10:30:26;96576.38;;;16.82;44.47
61324;BME280;47203;48.428;11.974;2023-03-18T10:32:39;96581.78;;;17.00;44.20
61324;BME280;47203;48.428;11.974;2023-03-18T10:35:01;96578.84;;;17.19;44.19
61324;BME280;47203;48.428;11.974;2023-03-18T10:37:18;96581.69;;;17.40;44.25
61324;BME280;47203;48.428;11.974;2023-03-18T10:39:28;96581.06;;;17.69;43.47
61324;BME280;47203;48.428;11.974;2023-03-18T10:41:35;96577.31;;;17.96;43.64
61324;BME280;47203;48.428;11.974;2023-03-18T10:43:43;96589.34;;;18.29;43.31
61324;BME280;47203;48.428;11.974;2023-03-18T10:45:58;96585.78;;;18.63;43.37
61324;BME280;47203;48.428;11.974;2023-03-18T10:48:10;96578.75;;;18.97;42.84
61324;BME280;47203;48.428;11.974;2023-03-18T10:50:19;96578.56;;;19.32;42.42
61324;BME280;47203;48.428;11.974;2023-03-18T10:52:33;96579.09;;;19.68;42.02
61324;BME280;47203;48.428;11.974;2023-03-18T10:54:41;96576.03;;;19.99;40.90
61324;BME280;47203;48.428;11.974;2023-03-18T10:56:47;96568.88;;;20.25;40.42
61324;BME280;47203;48.428;11.974;2023-03-18T10:58:53;96570.69;;;20.45;40.17
61324;BME280;47203;48.428;11.974;2023-03-18T11:00:59;96576.59;;;20.63;39.95
61324;BME280;47203;48.428;11.974;2023-03-18T11:03:05;96573.75;;;20.81;39.29
61324;BME280;47203;48.428;11.974;2023-03-18T11:05:19;96567.31;;;20.94;38.95
61324;BME280;47203;48.428;11.974;2023-03-18T11:07:30;96557.22;;;21.16;38.89
61324;BME280;47203;48.428;11.974;2023-03-18T11:09:36;96554.41;;;21.37;38.71
61324;BME280;47203;48.428;11.974;2023-03-18T11:11:44;96553.16;;;21.59;38.26
61324;BME280;47203;48.428;11.974;2023-03-18T11:13:50;96554.44;;;21.77;38.08
61324;BME280;47203;48.428;11.974;2023-03-18T11:15:56;96550.66;;;21.94;37.89